Time;durP1;ratioP1;P1;durP2;ratioP2;P2;SDS_P1;SDS_P2;PMS_P1;PMS_P2;Temp;Humidity;BMP_temperature;BMP_pressure;BME280_temperature;BME280_humidity;BME280_pressure;Samples;Min_cycle;Max_cycle;Signal;HPM_P1;HPM_P2
2021/07/04 00:00:27;;;;;;;21.27;16.27;;;;;;;16.01;100.00;95853.56;1032348;28;20038;-52
2021/07/04 00:00:58;;;;;;;26.05;17.25;;;;;;;16.05;100.00;95854.94;1032261;28;20015;-52
2021/07/04 00:01:29;;;;;;;20.80;16.00;;;;;;;16.05;100.00;95852.31;1032258;28;20053;-52
2021/07/04 00:02:00;;;;;;;21.30;15.27;;;;;;;16.04;100.00;95853.25;1032248;28;20033;-51
2021/07/04 00:02:30;;;;;;;17.60;14.25;;;;;;;16.01;100.00;95856.22;1032232;28;20094;-52
2021/07/04 00:03:02;;;;;;;18.67;14.38;;;;;;;15.97;100.00;95854.81;1032259;28;20013;-52
2021/07/04 00:03:33;;;;;;;17.83;14.40;;;;;;;16.02;100.00;95847.28;1031793;28;20019;-51
2021/07/04 00:04:04;;;;;;;19.75;14.45;;;;;;;16.01;100.00;95842.13;1031969;28;20021;-52
2021/07/04 00:04:35;;;;;;;17.02;14.35;;;;;;;16.04;100.00;95840.06;1032194;28;20034;-51
2021/07/04 00:05:06;;;;;;;20.23;14.75;;;;;;;16.07;100.00;95842.41;1032239;28;20029;-51
2021/07/04 00:05:40;;;;;;;21.55;15.32;;;;;;;16.08;100.00;95843.25;1031909;28;20098;-51
2021/07/04 00:06:11;;;;;;;20.20;15.25;;;;;;;16.06;100.00;95845.19;1032014;28;20097;-52
2021/07/04 00:06:41;;;;;;;21.58;16.02;;;;;;;16.06;100.00;95840.72;1031867;28;20022;-52
2021/07/04 00:07:12;;;;;;;28.30;16.40;;;;;;;16.05;100.00;95847.00;1032088;28;20046;-51
2021/07/04 00:07:43;;;;;;;17.60;13.70;;;;;;;16.05;100.00;95843.53;1032123;28;20018;-50
2021/07/04 00:08:16;;;;;;;17.10;13.77;;;;;;;16.02;100.00;95842.00;1032280;28;20026;-51
2021/07/04 00:08:46;;;;;;;18.40;14.52;;;;;;;16.03;100.00;95842.81;1032269;28;20053;-51
2021/07/04 00:09:17;;;;;;;20.50;14.68;;;;;;;16.05;100.00;95840.91;1032393;28;20036;-51
2021/07/04 00:09:47;;;;;;;22.58;15.40;;;;;;;16.02;100.00;95846.47;1032160;28;20018;-52
2021/07/04 00:10:23;;;;;;;20.13;14.80;;;;;;;15.98;100.00;95839.81;1032330;28;20019;-51
2021/07/04 00:10:58;;;;;;;18.48;14.98;;;;;;;15.93;100.00;95835.78;1032284;28;20022;-51
2021/07/04 00:11:28;;;;;;;15.85;13.80;;;;;;;15.92;100.00;95833.28;1032422;28;20010;-51
2021/07/04 00:11:59;;;;;;;18.88;14.68;;;;;;;15.97;100.00;95844.25;1032225;28;20019;-50
2021/07/04 00:12:30;;;;;;;18.90;14.65;;;;;;;16.01;100.00;95837.72;1032245;28;20065;-51
2021/07/04 00:13:01;;;;;;;15.38;13.23;;;;;;;16.04;100.00;95826.84;1032322;28;20018;-52
2021/07/04 00:13:32;;;;;;;16.10;14.07;;;;;;;16.12;100.00;95840.19;1031810;28;20006;-52
2021/07/04 00:14:03;;;;;;;18.77;13.77;;;;;;;16.08;100.00;95833.50;1031969;28;20085;-51
2021/07/04 00:14:33;;;;;;;15.30;13.70;;;;;;;16.03;100.00;95833.13;1032245;28;20388;-53
2021/07/04 00:15:07;;;;;;;18.58;14.30;;;;;;;16.02;100.00;95834.06;1032313;28;20022;-52
2021/07/04 00:15:40;;;;;;;18.65;14.57;;;;;;;16.00;100.00;95832.56;1032268;28;20011;-51
2021/07/04 00:16:11;;;;;;;20.55;14.60;;;;;;;16.05;100.00;95835.63;1032143;28;20018;-51
2021/07/04 00:16:42;;;;;;;15.40;13.52;;;;;;;16.08;100.00;95830.84;1032084;28;20010;-51
2021/07/04 00:17:13;;;;;;;14.55;13.05;;;;;;;16.09;100.00;95839.63;1032366;28;20384;-52
2021/07/04 00:17:43;;;;;;;18.52;13.57;;;;;;;16.03;100.00;95832.25;1032333;28;20026;-52
2021/07/04 00:18:17;;;;;;;15.52;13.93;;;;;;;16.01;100.00;95832.44;1032146;28;20073;-52
2021/07/04 00:18:48;;;;;;;17.40;14.02;;;;;;;16.01;100.00;95831.56;1032184;28;20412;-51
2021/07/04 00:19:18;;;;;;;19.52;15.55;;;;;;;15.99;100.00;95829.09;1032323;28;20029;-52
2021/07/04 00:19:49;;;;;;;21.65;16.50;;;;;;;16.01;100.00;95828.94;1032203;28;20011;-50
2021/07/04 00:20:20;;;;;;;22.55;16.15;;;;;;;15.95;100.00;95832.97;1032218;28;20014;-51
2021/07/04 00:20:52;;;;;;;21.95;17.23;;;;;;;15.91;100.00;95824.50;1032172;28;20026;-51
2021/07/04 00:21:23;;;;;;;20.00;15.48;;;;;;;15.92;100.00;95830.66;1032363;28;20534;-51
2021/07/04 00:21:53;;;;;;;20.08;16.35;;;;;;;15.88;100.00;95829.28;1032345;28;20041;-52
2021/07/04 00:22:24;;;;;;;20.33;15.25;;;;;;;15.87;100.00;95830.25;1032089;28;20011;-53
2021/07/04 00:22:55;;;;;;;21.88;13.85;;;;;;;15.94;100.00;95826.88;1032198;28;20476;-51
2021/07/04 00:23:26;;;;;;;18.88;15.30;;;;;;;15.96;100.00;95833.84;1032107;28;20020;-51
2021/07/04 00:23:56;;;;;;;21.92;15.88;;;;;;;16.01;100.00;95829.78;1031737;28;20362;-51
2021/07/04 00:24:27;;;;;;;22.73;15.82;;;;;;;16.00;100.00;95836.03;1032111;28;20050;-52
2021/07/04 00:24:57;;;;;;;22.55;16.95;;;;;;;15.96;100.00;95832.03;1032193;28;20060;-51
2021/07/04 00:25:28;;;;;;;20.35;16.52;;;;;;;16.01;100.00;95832.44;1032185;28;20025;-53
2021/07/04 00:25:59;;;;;;;21.85;16.50;;;;;;;15.96;100.00;95834.66;1032234;28;20030;-50
2021/07/04 00:26:30;;;;;;;23.45;16.85;;;;;;;15.99;100.00;95829.09;1032127;28;20011;-52
2021/07/04 00:27:00;;;;;;;20.52;16.95;;;;;;;16.02;100.00;95827.97;1032092;28;20022;-52
2021/07/04 00:27:31;;;;;;;22.33;16.90;;;;;;;15.94;100.00;95826.88;1032109;28;20019;-52
2021/07/04 00:28:02;;;;;;;20.90;16.23;;;;;;;15.93;100.00;95829.66;1032261;28;20030;-51
2021/07/04 00:28:33;;;;;;;24.02;16.20;;;;;;;15.85;100.00;95829.56;1032143;28;20033;-52
2021/07/04 00:29:04;;;;;;;20.95;15.98;;;;;;;15.89;100.00;95831.75;1032098;28;20053;-52
2021/07/04 00:29:35;;;;;;;22.00;16.58;;;;;;;15.92;100.00;95828.00;1032284;28;20022;-51
2021/07/04 00:30:08;;;;;;;22.52;16.95;;;;;;;15.92;100.00;95830.66;1032240;28;20026;-52
2021/07/04 00:30:38;;;;;;;19.40;15.48;;;;;;;15.96;100.00;95826.72;1032114;28;20018;-52
2021/07/04 00:31:09;;;;;;;22.00;16.48;;;;;;;15.94;100.00;95829.50;1032201;28;20019;-53
2021/07/04 00:31:39;;;;;;;19.17;15.77;;;;;;;15.86;100.00;95829.41;1032279;28;20011;-52
2021/07/04 00:32:10;;;;;;;18.65;15.23;;;;;;;15.85;100.00;95829.56;1032279;28;20097;-51
2021/07/04 00:32:41;;;;;;;21.58;14.88;;;;;;;15.88;100.00;95824.00;1032118;28;20417;-51
2021/07/04 00:33:12;;;;;;;22.80;15.48;;;;;;;15.86;100.00;95833.84;1032093;28;20026;-51
2021/07/04 00:33:42;;;;;;;21.83;16.98;;;;;;;15.84;100.00;95827.88;1031591;28;20017;-53
2021/07/04 00:34:13;;;;;;;25.42;16.20;;;;;;;15.87;100.00;95830.25;1032220;28;20065;-51
2021/07/04 00:34:44;;;;;;;21.70;16.83;;;;;;;15.86;100.00;95836.47;1032091;28;20025;-52
2021/07/04 00:35:15;;;;;;;20.63;16.63;;;;;;;15.86;100.00;95828.56;1032136;28;20013;-51
2021/07/04 00:35:46;;;;;;;22.33;16.45;;;;;;;15.82;100.00;95828.03;1031844;28;20025;-51
2021/07/04 00:36:17;;;;;;;21.13;16.13;;;;;;;15.84;100.00;95828.72;1032304;28;20022;-52
2021/07/04 00:36:47;;;;;;;21.92;16.13;;;;;;;15.88;100.00;95829.28;1032066;28;20022;-50
2021/07/04 00:37:18;;;;;;;18.45;15.82;;;;;;;15.95;100.00;95827.69;1032084;28;20109;-51
2021/07/04 00:37:50;;;;;;;22.38;16.50;;;;;;;16.00;100.00;95820.19;1032160;28;20041;-52
2021/07/04 00:38:21;;;;;;;25.23;18.65;;;;;;;16.02;100.00;95828.78;1032273;28;20022;-52
2021/07/04 00:38:52;;;;;;;25.40;17.58;;;;;;;16.04;100.00;95829.47;1032180;28;20448;-52
2021/07/04 00:39:23;;;;;;;18.77;15.80;;;;;;;16.02;100.00;95820.03;1032047;28;20049;-52
2021/07/04 00:39:53;;;;;;;18.63;15.48;;;;;;;15.96;100.00;95826.72;1031832;28;20105;-52
2021/07/04 00:40:24;;;;;;;17.90;14.35;;;;;;;15.96;100.00;95818.81;1031955;28;20026;-50
2021/07/04 00:40:55;;;;;;;19.15;15.30;;;;;;;15.92;100.00;95826.19;1031763;28;20022;-52
2021/07/04 00:41:26;;;;;;;23.65;17.15;;;;;;;15.90;100.00;95827.31;1031789;28;20026;-51
2021/07/04 00:41:57;;;;;;;25.02;17.52;;;;;;;15.92;100.00;95828.81;1032221;28;20110;-52
2021/07/04 00:42:27;;;;;;;20.63;15.05;;;;;;;15.93;100.00;95819.09;1031888;28;20584;-52
2021/07/04 00:42:58;;;;;;;19.02;15.13;;;;;;;15.94;100.00;95828.69;1031830;28;20042;-52
2021/07/04 00:43:29;;;;;;;20.50;16.20;;;;;;;15.94;100.00;95818.13;1031355;28;20022;-50
2021/07/04 00:44:00;;;;;;;21.00;15.57;;;;;;;15.97;100.00;95824.91;1031393;28;20566;-52
2021/07/04 00:44:31;;;;;;;20.30;14.70;;;;;;;15.94;100.00;95826.03;1031712;28;20092;-52
2021/07/04 00:45:02;;;;;;;19.77;15.68;;;;;;;15.92;100.00;95825.38;1031770;28;20113;-52
2021/07/04 00:45:33;;;;;;;19.80;15.98;;;;;;;15.92;100.00;95822.72;1031764;28;20026;-51
2021/07/04 00:46:03;;;;;;;18.90;15.25;;;;;;;15.96;100.00;95818.81;1031833;28;20023;-51
2021/07/04 00:46:34;;;;;;;21.58;15.55;;;;;;;15.95;100.00;95817.13;1031885;28;20042;-52
2021/07/04 00:47:05;;;;;;;19.25;15.30;;;;;;;15.95;100.00;95825.06;1031786;28;20014;-52
2021/07/04 00:47:35;;;;;;;23.30;16.90;;;;;;;15.96;100.00;95823.28;1031623;28;20101;-52
2021/07/04 00:48:06;;;;;;;20.58;15.35;;;;;;;15.97;100.00;95817.00;1031792;28;20011;-52
2021/07/04 00:48:37;;;;;;;21.27;14.68;;;;;;;16.04;100.00;95826.00;1031786;28;20026;-52
2021/07/04 00:49:08;;;;;;;22.42;16.40;;;;;;;16.01;100.00;95818.34;1032095;28;20072;-51
2021/07/04 00:49:38;;;;;;;20.42;16.48;;;;;;;15.93;100.00;95822.59;1032005;28;20022;-51
2021/07/04 00:50:09;;;;;;;20.45;16.40;;;;;;;15.94;100.00;95818.13;1032161;28;20101;-51
2021/07/04 00:50:40;;;;;;;18.95;15.02;;;;;;;15.95;100.00;95819.78;1032108;28;20022;-52
2021/07/04 00:51:11;;;;;;;18.92;15.60;;;;;;;15.94;100.00;95818.94;1032018;28;20026;-51
2021/07/04 00:51:41;;;;;;;22.27;17.23;;;;;;;15.93;100.00;95817.28;1032000;28;20027;-51
2021/07/04 00:52:12;;;;;;;18.25;15.23;;;;;;;16.02;100.00;95817.41;1032223;28;20030;-52
2021/07/04 00:52:44;;;;;;;20.48;16.15;;;;;;;16.02;100.00;95817.41;1032058;28;20025;-51
2021/07/04 00:53:14;;;;;;;20.27;16.63;;;;;;;16.01;100.00;95821.84;1032156;28;20014;-52
2021/07/04 00:53:45;;;;;;;21.00;16.65;;;;;;;15.94;100.00;95818.94;1031381;28;20400;-52
2021/07/04 00:54:16;;;;;;;19.95;15.40;;;;;;;15.95;100.00;95817.13;1032216;28;20025;-52
2021/07/04 00:54:46;;;;;;;20.52;15.95;;;;;;;15.93;100.00;95819.94;1032092;28;20404;-51
2021/07/04 00:55:17;;;;;;;21.27;16.90;;;;;;;15.98;100.00;95816.03;1032159;28;20030;-52
2021/07/04 00:55:48;;;;;;;22.33;16.60;;;;;;;15.90;100.00;95816.75;1031982;28;20105;-50
2021/07/04 00:56:18;;;;;;;20.27;16.27;;;;;;;15.93;100.00;95803.22;1032183;28;20045;-52
2021/07/04 00:56:49;;;;;;;19.80;15.07;;;;;;;15.98;100.00;95811.56;1032007;28;20046;-50
2021/07/04 00:57:19;;;;;;;19.42;15.85;;;;;;;16.00;100.00;95814.06;1032003;28;20460;-52
2021/07/04 00:57:50;;;;;;;22.33;16.80;;;;;;;15.97;100.00;95811.69;1031916;28;20037;-52
2021/07/04 00:58:21;;;;;;;21.88;16.48;;;;;;;15.95;100.00;95817.13;1032081;28;20030;-52
2021/07/04 00:58:51;;;;;;;20.83;16.98;;;;;;;15.91;100.00;95807.81;1032056;28;20025;-51
2021/07/04 00:59:22;;;;;;;20.42;15.82;;;;;;;15.98;100.00;95811.56;1032147;28;20413;-51
2021/07/04 00:59:53;;;;;;;21.70;15.98;;;;;;;16.01;100.00;95813.94;1031984;28;20025;-52
2021/07/04 01:00:25;;;;;;;16.42;14.65;;;;;;;15.99;100.00;95807.97;1032152;28;20162;-51
2021/07/04 01:00:56;;;;;;;19.05;15.27;;;;;;;15.98;100.00;95811.56;1032027;28;20058;-52
2021/07/04 01:01:27;;;;;;;20.45;15.35;;;;;;;16.01;100.00;95813.94;1032063;28;20026;-52
2021/07/04 01:01:59;;;;;;;21.80;15.55;;;;;;;16.00;100.00;95809.59;1031987;28;20026;-52
2021/07/04 01:02:29;;;;;;;17.85;14.90;;;;;;;15.96;100.00;95808.22;1032115;28;20372;-51
2021/07/04 01:03:00;;;;;;;21.48;16.77;;;;;;;15.98;100.00;95813.38;1032019;28;20133;-53
2021/07/04 01:03:31;;;;;;;23.42;16.40;;;;;;;15.97;100.00;95811.69;1031612;28;20392;-50
2021/07/04 01:04:01;;;;;;;23.10;17.98;;;;;;;15.98;100.00;95810.75;1031799;28;20022;-52
2021/07/04 01:04:32;;;;;;;20.35;16.02;;;;;;;16.04;100.00;95808.34;1032131;28;20019;-52
2021/07/04 01:05:15;;;;;;;21.73;15.75;;;;;;;16.06;100.00;95808.19;1031999;28;20034;-51
2021/07/04 01:05:46;;;;;;;21.05;16.50;;;;;;;16.06;100.00;95809.03;1032178;28;20380;-52
2021/07/04 01:06:16;;;;;;;21.30;15.98;;;;;;;15.97;100.00;95803.78;1031929;28;20046;-52
2021/07/04 01:06:47;;;;;;;17.35;14.70;;;;;;;16.00;100.00;95803.50;1031772;28;20101;-50
2021/07/04 01:07:17;;;;;;;18.95;15.63;;;;;;;16.04;100.00;95807.50;1031785;28;20030;-51
2021/07/04 01:07:48;;;;;;;20.33;16.88;;;;;;;16.05;100.00;95810.00;1031724;28;20529;-51
2021/07/04 01:08:19;;;;;;;16.17;14.38;;;;;;;16.05;100.00;95803.91;1031714;28;20109;-52
2021/07/04 01:08:49;;;;;;;22.05;14.82;;;;;;;16.02;100.00;95802.38;1031991;28;20448;-52
2021/07/04 01:09:20;;;;;;;18.67;14.07;;;;;;;16.04;100.00;95797.75;1032040;28;20081;-52
2021/07/04 01:09:51;;;;;;;19.48;16.10;;;;;;;16.01;100.00;95800.72;1032045;28;20038;-52
2021/07/04 01:10:24;;;;;;;19.08;14.98;;;;;;;15.95;100.00;95803.91;1031962;28;20097;-52
2021/07/04 01:10:54;;;;;;;20.30;14.63;;;;;;;15.92;100.00;95804.22;1032023;28;20025;-52
2021/07/04 01:11:25;;;;;;;19.55;15.45;;;;;;;15.93;100.00;95801.44;1032234;28;20038;-52
2021/07/04 01:11:55;;;;;;;21.63;15.40;;;;;;;15.94;100.00;95799.63;1032133;28;20026;-52
2021/07/04 01:12:26;;;;;;;20.50;16.30;;;;;;;15.92;100.00;95794.47;1032245;28;20034;-51
2021/07/04 01:12:58;;;;;;;19.52;14.95;;;;;;;15.98;100.00;95797.53;1032076;28;20068;-52
2021/07/04 01:13:29;;;;;;;19.95;15.20;;;;;;;16.04;100.00;95794.28;1031858;28;20527;-53
2021/07/04 01:14:00;;;;;;;17.77;13.52;;;;;;;16.04;100.00;95794.28;1031811;28;20027;-52
2021/07/04 01:14:31;;;;;;;16.75;13.40;;;;;;;16.07;100.00;95797.47;1031984;28;20437;-52
2021/07/04 01:15:04;;;;;;;17.75;14.18;;;;;;;16.06;100.00;95793.16;1032018;28;20025;-51
2021/07/04 01:15:34;;;;;;;21.38;14.25;;;;;;;16.04;100.00;95786.38;1032139;28;20049;-52
2021/07/04 01:16:05;;;;;;;19.05;14.98;;;;;;;15.98;100.00;95784.31;1031939;28;20484;-52
2021/07/04 01:16:36;;;;;;;14.95;13.07;;;;;;;16.00;100.00;95782.34;1031729;28;20022;-51
2021/07/04 01:17:07;;;;;;;18.58;14.82;;;;;;;15.94;100.00;95789.88;1031937;28;20093;-51
2021/07/04 01:17:37;;;;;;;18.95;15.00;;;;;;;15.94;100.00;95784.59;1031962;28;20020;-51
2021/07/04 01:18:09;;;;;;;19.92;13.98;;;;;;;15.94;100.00;95792.53;1032135;28;20013;-52
2021/07/04 01:18:39;;;;;;;22.60;15.20;;;;;;;15.93;100.00;95787.38;1031991;28;20404;-51
2021/07/04 01:19:11;;;;;;;16.20;14.38;;;;;;;15.92;100.00;95793.66;1031955;28;20019;-50
2021/07/04 01:19:42;;;;;;;18.83;15.13;;;;;;;15.89;100.00;95793.94;1032026;28;20086;-52
2021/07/04 01:20:14;;;;;;;16.30;13.27;;;;;;;15.85;100.00;95787.28;1032059;28;20015;-53
2021/07/04 01:20:45;;;;;;;18.50;15.10;;;;;;;15.86;100.00;95784.50;1031879;28;20021;-51
2021/07/04 01:21:16;;;;;;;19.02;15.75;;;;;;;15.87;100.00;95786.16;1032040;28;20029;-51
2021/07/04 01:21:47;;;;;;;18.60;16.02;;;;;;;15.90;100.00;95785.03;1032101;28;20472;-51
2021/07/04 01:22:18;;;;;;;17.05;14.02;;;;;;;15.89;100.00;95786.00;1032026;28;20026;-52
2021/07/04 01:22:58;;;;;;;20.02;15.75;;;;;;;15.88;100.00;95790.47;1031869;28;20022;-51
2021/07/04 01:23:29;;;;;;;17.08;14.70;;;;;;;15.91;100.00;95792.78;1031703;28;20042;-50
2021/07/04 01:24:00;;;;;;;20.60;15.73;;;;;;;15.89;100.00;95792.13;1031830;28;20014;-50
2021/07/04 01:24:30;;;;;;;19.27;14.27;;;;;;;15.87;100.00;95782.69;1032158;28;20069;-50
2021/07/04 01:25:01;;;;;;;19.38;14.35;;;;;;;15.82;100.00;95792.84;1031893;28;20099;-51
2021/07/04 01:25:32;;;;;;;19.77;15.60;;;;;;;15.81;100.00;95788.53;1032018;28;20014;-51
2021/07/04 01:26:03;;;;;;;18.40;14.43;;;;;;;15.86;100.00;95786.28;1032040;28;20065;-52
2021/07/04 01:26:34;;;;;;;18.05;13.93;;;;;;;15.87;100.00;95790.59;1032062;28;20011;-51
2021/07/04 01:27:05;;;;;;;18.52;14.50;;;;;;;15.89;100.00;95784.19;1031803;28;20018;-52
2021/07/04 01:27:36;;;;;;;17.08;14.65;;;;;;;15.94;100.00;95789.06;1031901;28;20018;-51
2021/07/04 01:28:07;;;;;;;20.10;15.32;;;;;;;15.98;100.00;95784.31;1032024;28;20010;-52
2021/07/04 01:28:37;;;;;;;20.98;15.35;;;;;;;15.98;100.00;95779.03;1032071;28;20548;-50
2021/07/04 01:29:08;;;;;;;20.10;15.25;;;;;;;15.97;100.00;95790.56;1031875;28;20014;-51
2021/07/04 01:29:41;;;;;;;18.25;15.13;;;;;;;15.96;100.00;95786.28;1032040;28;20064;-51
2021/07/04 01:30:13;;;;;;;18.17;14.57;;;;;;;15.97;100.00;95780.81;1033212;28;20021;-52
2021/07/04 01:30:47;;;;;;;20.38;15.45;;;;;;;15.98;100.00;95781.66;1032517;28;20515;-52
2021/07/04 01:31:18;;;;;;;20.58;15.63;;;;;;;15.99;100.00;95772.75;1031766;28;20410;-52
2021/07/04 01:31:48;;;;;;;19.88;15.70;;;;;;;15.92;100.00;95783.09;1032059;28;20042;-51
2021/07/04 01:32:19;;;;;;;19.60;15.38;;;;;;;15.95;100.00;95780.13;1031902;28;20090;-52
2021/07/04 01:32:50;;;;;;;21.60;14.77;;;;;;;15.92;100.00;95783.09;1035857;28;20025;-52
2021/07/04 01:33:21;;;;;;;20.17;15.95;;;;;;;15.92;100.00;95772.50;1035506;28;20014;-51
2021/07/04 01:33:51;;;;;;;18.73;15.63;;;;;;;15.96;100.00;95781.81;1035166;28;20076;-52
2021/07/04 01:34:22;;;;;;;23.42;16.08;;;;;;;15.96;100.00;95776.53;1035632;28;20014;-52
2021/07/04 01:34:53;;;;;;;20.15;15.55;;;;;;;15.98;100.00;95781.66;1031990;28;20011;-52
2021/07/04 01:35:24;;;;;;;16.98;15.15;;;;;;;15.93;100.00;95784.72;1031792;28;20022;-51
2021/07/04 01:35:55;;;;;;;16.67;14.73;;;;;;;15.93;100.00;95779.44;1031742;28;20053;-52
2021/07/04 01:36:25;;;;;;;19.80;15.48;;;;;;;15.94;100.00;95778.47;1032026;28;20014;-51
2021/07/04 01:36:56;;;;;;;21.35;15.93;;;;;;;15.92;100.00;95780.44;1032017;28;20184;-51
2021/07/04 01:37:27;;;;;;;22.95;14.88;;;;;;;15.95;100.00;95774.84;1031776;28;20014;-51
2021/07/04 01:37:57;;;;;;;21.48;16.17;;;;;;;15.89;100.00;95783.38;1032023;28;20023;-53
2021/07/04 01:38:28;;;;;;;20.23;14.75;;;;;;;15.90;100.00;95774.47;1031966;28;20022;-51
2021/07/04 01:38:58;;;;;;;20.23;15.15;;;;;;;15.86;100.00;95781.00;1032044;28;20026;-51
2021/07/04 01:39:29;;;;;;;18.55;14.80;;;;;;;15.89;100.00;95778.06;1031823;28;20077;-51
2021/07/04 01:40:00;;;;;;;20.48;15.23;;;;;;;15.89;100.00;95783.38;1032016;28;20087;-51
2021/07/04 01:40:31;;;;;;;18.05;14.50;;;;;;;15.91;100.00;95781.41;1032065;28;20546;-51
2021/07/04 01:41:02;;;;;;;18.02;14.98;;;;;;;15.94;100.00;95778.47;1032043;28;20026;-51
2021/07/04 01:41:34;;;;;;;19.45;14.98;;;;;;;15.94;100.00;95783.78;1031782;28;20022;-51
2021/07/04 01:42:04;;;;;;;17.42;14.73;;;;;;;15.97;100.00;95780.00;1032112;28;20025;-51
2021/07/04 01:42:35;;;;;;;19.35;15.07;;;;;;;15.96;100.00;95775.69;1031986;28;20101;-51
2021/07/04 01:43:05;;;;;;;21.05;14.55;;;;;;;15.95;100.00;95777.50;1032039;28;20022;-52
2021/07/04 01:43:36;;;;;;;19.25;13.82;;;;;;;15.90;100.00;95764.72;1031413;28;20018;-51
2021/07/04 01:44:07;;;;;;;17.13;14.75;;;;;;;15.96;100.00;95781.81;1032032;28;20029;-52
2021/07/04 01:44:37;;;;;;;19.58;15.10;;;;;;;16.00;100.00;95775.25;1032032;28;20014;-53
2021/07/04 01:45:11;;;;;;;21.10;15.52;;;;;;;15.99;100.00;95773.59;1032042;28;20098;-51
2021/07/04 01:45:41;;;;;;;19.13;15.40;;;;;;;15.95;100.00;95769.56;1031843;28;20096;-52
2021/07/04 01:46:13;;;;;;;18.48;13.75;;;;;;;15.97;100.00;95775.53;1032059;28;20595;-51
2021/07/04 01:46:43;;;;;;;20.67;14.93;;;;;;;15.93;100.00;95775.03;1031972;28;20629;-51
2021/07/04 01:47:14;;;;;;;19.13;14.88;;;;;;;15.97;100.00;95772.88;1031930;28;20022;-52
2021/07/04 01:47:45;;;;;;;19.75;16.13;;;;;;;15.96;100.00;95773.88;1031750;28;20029;-52
2021/07/04 01:48:15;;;;;;;18.77;15.32;;;;;;;15.96;100.00;95773.06;1031986;28;20093;-51
2021/07/04 01:48:46;;;;;;;18.70;15.85;;;;;;;15.93;100.00;95768.88;1031986;28;20107;-52
2021/07/04 01:49:17;;;;;;;21.67;15.82;;;;;;;15.95;100.00;95774.84;1031952;28;20072;-52
2021/07/04 01:49:47;;;;;;;18.25;15.07;;;;;;;15.92;100.00;95772.50;1031902;28;20029;-51
2021/07/04 01:50:22;;;;;;;17.10;15.00;;;;;;;15.92;100.00;95773.34;1031904;28;20052;-52
2021/07/04 01:50:53;;;;;;;21.00;15.20;;;;;;;15.90;100.00;95771.84;1032052;28;20071;-51
2021/07/04 01:51:24;;;;;;;20.08;15.85;;;;;;;15.96;100.00;95779.16;1031947;28;20546;-52
2021/07/04 01:51:55;;;;;;;20.38;14.50;;;;;;;15.97;100.00;95775.53;1031891;28;20050;-51
2021/07/04 01:52:26;;;;;;;19.05;15.15;;;;;;;15.93;100.00;95775.03;1031831;28;20057;-51
2021/07/04 01:52:56;;;;;;;18.10;13.82;;;;;;;15.94;100.00;95771.38;1032024;28;20030;-51
2021/07/04 01:53:27;;;;;;;16.02;13.65;;;;;;;15.99;100.00;95773.59;1031707;28;20019;-51
2021/07/04 01:53:58;;;;;;;19.95;16.17;;;;;;;15.99;100.00;95778.88;1031489;28;20163;-52
2021/07/04 01:54:29;;;;;;;19.27;16.15;;;;;;;15.98;100.00;95779.84;1031926;28;20098;-51
2021/07/04 01:54:59;;;;;;;23.33;16.50;;;;;;;15.95;100.00;95772.19;1032024;28;20522;-51
2021/07/04 01:55:30;;;;;;;21.77;15.55;;;;;;;15.91;100.00;95782.22;1031868;28;20027;-52
2021/07/04 01:56:04;;;;;;;20.05;16.52;;;;;;;15.88;100.00;95779.91;1035645;28;20480;-50
2021/07/04 01:56:35;;;;;;;21.10;16.00;;;;;;;15.86;100.00;95778.34;1035702;28;20507;-51
2021/07/04 01:57:13;;;;;;;18.70;16.10;;;;;;;15.89;100.00;95778.06;1035813;28;20017;-50
2021/07/04 01:57:45;;;;;;;19.08;16.02;;;;;;;15.91;100.00;95773.47;1034149;28;20022;-52
2021/07/04 01:58:16;;;;;;;21.70;16.17;;;;;;;15.85;100.00;95779.34;1031902;28;20454;-51
2021/07/04 01:58:47;;;;;;;20.85;15.98;;;;;;;15.90;100.00;95782.41;1031960;28;20026;-52
2021/07/04 01:59:17;;;;;;;18.52;15.20;;;;;;;15.92;100.00;95775.16;1031976;28;20587;-51
2021/07/04 01:59:50;;;;;;;21.55;15.18;;;;;;;15.88;100.00;95776.44;1031942;28;20065;-51
2021/07/04 02:00:24;;;;;;;22.55;16.23;;;;;;;15.91;100.00;95782.22;1031883;28;20110;-52
2021/07/04 02:00:55;;;;;;;16.67;14.50;;;;;;;15.94;100.00;95775.84;1031961;28;20033;-52
2021/07/04 02:01:25;;;;;;;17.15;15.10;;;;;;;15.99;100.00;95778.03;1034193;28;20026;-50
2021/07/04 02:01:56;;;;;;;17.60;14.48;;;;;;;15.92;100.00;95780.44;1034513;28;20026;-51
2021/07/04 02:02:27;;;;;;;17.42;15.07;;;;;;;15.93;100.00;95777.66;1034590;28;20014;-52
2021/07/04 02:02:59;;;;;;;20.75;15.30;;;;;;;15.89;100.00;95778.91;1034535;28;20025;-51
2021/07/04 02:03:29;;;;;;;17.75;15.30;;;;;;;15.83;100.00;95768.09;1034064;28;20030;-50
2021/07/04 02:04:00;;;;;;;17.98;14.98;;;;;;;15.88;100.00;95782.53;1034394;28;20054;-51
2021/07/04 02:04:36;;;;;;;18.63;16.65;;;;;;;15.90;100.00;95783.22;1034306;28;20413;-51
2021/07/04 02:05:08;;;;;;;19.35;16.48;;;;;;;15.87;100.00;95772.13;1034336;28;20046;-52
2021/07/04 02:05:38;;;;;;;21.90;16.35;;;;;;;15.86;100.00;95771.28;1034190;28;20278;-52
2021/07/04 02:06:09;;;;;;;20.85;16.33;;;;;;;15.84;100.00;95781.16;1034423;28;20046;-51
2021/07/04 02:06:40;;;;;;;22.40;16.35;;;;;;;15.82;100.00;95780.47;1034224;28;20088;-52
2021/07/04 02:07:18;;;;;;;18.95;15.52;;;;;;;15.87;100.00;95780.03;1034531;28;20022;-51
2021/07/04 02:07:49;;;;;;;22.52;15.02;;;;;;;15.82;100.00;95782.28;1033911;28;20023;-52
2021/07/04 02:08:20;;;;;;;22.60;15.25;;;;;;;15.82;100.00;95784.91;1034084;28;20030;-50
2021/07/04 02:08:50;;;;;;;19.77;16.30;;;;;;;15.87;100.00;95786.16;1031899;28;20034;-51
2021/07/04 02:09:21;;;;;;;19.92;15.45;;;;;;;15.90;100.00;95777.94;1031994;28;20443;-51
2021/07/04 02:09:52;;;;;;;20.92;16.33;;;;;;;15.93;100.00;95777.66;1031580;28;20026;-52
2021/07/04 02:10:25;;;;;;;22.75;15.48;;;;;;;15.89;100.00;95775.44;1031737;28;20026;-52
2021/07/04 02:10:55;;;;;;;20.15;15.45;;;;;;;15.93;100.00;95776.81;1031484;28;20066;-51
2021/07/04 02:11:26;;;;;;;16.40;14.70;;;;;;;15.91;100.00;95778.75;1031722;28;20018;-50
2021/07/04 02:11:57;;;;;;;18.15;15.13;;;;;;;15.93;100.00;95772.38;1031955;28;20026;-51
2021/07/04 02:12:28;;;;;;;23.35;16.83;;;;;;;15.92;100.00;95772.50;1031839;28;20068;-50
2021/07/04 02:12:58;;;;;;;19.42;16.10;;;;;;;15.95;100.00;95774.84;1031873;28;20049;-51
2021/07/04 02:13:29;;;;;;;24.08;17.58;;;;;;;15.99;100.00;95778.88;1031463;28;20480;-50
2021/07/04 02:14:00;;;;;;;21.48;16.60;;;;;;;16.02;100.00;95769.81;1031653;28;20069;-51
2021/07/04 02:14:31;;;;;;;20.65;16.30;;;;;;;15.97;100.00;95772.06;1031936;28;20105;-51
2021/07/04 02:15:08;;;;;;;24.45;17.92;;;;;;;15.93;100.00;95776.81;1031833;28;20049;-50
2021/07/04 02:15:39;;;;;;;19.50;15.77;;;;;;;15.93;100.00;95767.09;1031916;28;20082;-51
2021/07/04 02:16:09;;;;;;;18.52;15.15;;;;;;;15.92;100.00;95775.97;1031942;28;20093;-51
2021/07/04 02:16:40;;;;;;;19.27;16.05;;;;;;;15.87;100.00;95777.41;1031841;28;20022;-51
2021/07/04 02:17:11;;;;;;;21.05;16.85;;;;;;;15.90;100.00;95774.47;1031781;28;20026;-52
2021/07/04 02:17:42;;;;;;;19.73;16.17;;;;;;;15.87;100.00;95777.41;1031798;28;20098;-51
2021/07/04 02:18:16;;;;;;;22.27;16.92;;;;;;;15.81;100.00;95777.97;1031970;28;20073;-50
2021/07/04 02:18:50;;;;;;;19.83;16.45;;;;;;;15.80;100.00;95778.94;1031950;28;20014;-51
2021/07/04 02:19:21;;;;;;;22.02;16.88;;;;;;;15.80;100.00;95779.78;1031725;28;20019;-53
2021/07/04 02:19:52;;;;;;;22.73;17.48;;;;;;;15.79;100.00;95779.94;1031726;28;20459;-51
2021/07/04 02:20:31;;;;;;;21.95;16.75;;;;;;;15.81;100.00;95777.97;1031909;28;20049;-52
2021/07/04 02:21:02;;;;;;;19.70;15.57;;;;;;;15.81;100.00;95783.25;1031833;28;20029;-51
2021/07/04 02:21:33;;;;;;;20.52;16.48;;;;;;;15.84;100.00;95780.31;1031772;28;20022;-52
2021/07/04 02:22:06;;;;;;;22.65;16.23;;;;;;;15.81;100.00;95772.69;1031926;28;20046;-51